Overview Statistics Trail Chart Weather Telemetry Raw packets
 

This is the latest recevied weather packets stored in our database for station/object K6POO-1. If no packets are shown the sender has not sent any weather packets the latest 10 day(s).

<< 9 10 11 12 13 14 15 >>
Time Temp. Humidity Pressure Rain* Wind** Luminosity Snow
1788621779 17.78° C 80% 1015 hPa 0 mm - 226 W/m² -
1788621474 17.78° C 81% 1014.9 hPa 0 mm - 205 W/m² -
1788621170 17.22° C 83% 1015 hPa 0 mm - 178 W/m² -
1788620870 17.78° C 83% 1014.8 hPa 0 mm - 158 W/m² -
1788620569 17.78° C 85% 1014.8 hPa 0 mm - 138 W/m² -
1788620267 17.22° C 85% 1014.6 hPa 0 mm - 126 W/m² -
1788619962 17.22° C 89% 1014.8 hPa 0 mm - 113 W/m² -
1788619660 15.56° C 91% 1014.8 hPa 0 mm - 100 W/m² -
1788619356 15.56° C 90% 1014.7 hPa 0 mm - 88 W/m² -
1788619055 15° C 93% 1014.9 hPa 0 mm - 78 W/m² -
1788618755 13.89° C 92% 1014.7 hPa 0 mm - 70 W/m² -
1788618453 13.89° C 92% 1014.8 hPa 0 mm - 61 W/m² -
1788618148 13.33° C 92% 1014.8 hPa 0 mm - 52 W/m² -
1788617845 13.33° C 93% 1014.8 hPa 0 mm - 44 W/m² -
1788617540 13.33° C 92% 1014.5 hPa 0 mm - 23 W/m² -
1788617235 13.33° C 93% 1014.6 hPa 0 mm - 19 W/m² -
1788616934 13.33° C 92% 1014.4 hPa 0 mm - 16 W/m² -
1788616624 13.33° C 93% 1014.5 hPa 0 mm - 12 W/m² -
1788616319 13.33° C 92% 1014.5 hPa 0 mm - 9 W/m² -
1788616013 13.33° C 92% 1014.4 hPa 0 mm - 6 W/m² -
1788615712 13.33° C 92% 1014.4 hPa 0 mm - 3 W/m² -
1788615408 13.33° C 92% 1014.3 hPa 0 mm - 2 W/m² -
1788615102 13.33° C 92% 1014.3 hPa 0 mm - 1 W/m² -
1788614802 13.33° C 92% 1014.2 hPa 0 mm - 0 W/m² -
1788614497 13.33° C 92% 1014.3 hPa 0 mm - 0 W/m² -

* Rain latest hour (hover to see other rain measurements)
** Current wind speed in m/s (hover to see current wind gust speed)